Time;durP1;ratioP1;P1;durP2;ratioP2;P2;SDS_P1;SDS_P2;PMS_P1;PMS_P2;Temp;Humidity;BMP_temperature;BMP_pressure;BME280_temperature;BME280_humidity;BME280_pressure;Samples;Min_cycle;Max_cycle;Signal;HPM_P1;HPM_P2
2022/02/20 04:27:50;;;;;;;;;;;;;;;2.65;95.19;99680.09;4887783;29;19959;-79
2022/02/20 04:30:16;;;;;;;;;;;;;;;2.59;95.73;99685.41;4896710;29;19959;-80
2022/02/20 04:32:42;;;;;;;;;;;;;;;2.49;95.90;99670.69;4914134;29;20341;-79
2022/02/20 04:35:08;;;;;;;;;;;;;;;2.45;95.53;99671.63;4894963;29;19923;-80
2022/02/20 04:37:33;;;;;;;;;;;;;;;2.33;95.64;99672.59;4899311;29;19919;-80
2022/02/20 04:40:00;;;;;;;;;;;;;;;2.38;96.41;99662.97;4916555;29;19926;-80
2022/02/20 04:42:25;;;;;;;;;;;;;;;2.23;96.35;99671.00;4914655;29;20371;-80
2022/02/20 04:44:51;;;;;;;;;;;;;;;2.16;96.57;99667.59;4899584;29;19971;-79
2022/02/20 04:47:16;;;;;;;;;;;;;;;2.05;96.28;99666.81;4900131;29;19930;-79
2022/02/20 04:49:41;;;;;;;;;;;;;;;1.99;96.03;99658.16;4915593;29;19966;-80
2022/02/20 04:52:06;;;;;;;;;;;;;;;1.90;95.73;99646.91;4915005;29;19923;-79
2022/02/20 04:54:32;;;;;;;;;;;;;;;1.84;95.67;99641.78;4915490;29;20014;-81
2022/02/20 04:56:57;;;;;;;;;;;;;;;1.73;95.45;99640.13;4913215;29;19930;-78
2022/02/20 04:59:22;;;;;;;;;;;;;;;1.62;94.96;99641.97;4915353;29;20367;-78
2022/02/20 05:01:47;;;;;;;;;;;;;;;1.54;94.24;99628.09;4914843;29;20259;-81
2022/02/20 05:04:13;;;;;;;;;;;;;;;1.52;94.21;99622.91;4915556;29;20018;-78
2022/02/20 05:06:38;;;;;;;;;;;;;;;1.61;93.97;99625.44;4915823;29;19930;-79
2022/02/20 05:09:03;;;;;;;;;;;;;;;1.44;93.53;99622.09;4915650;29;19927;-78
2022/02/20 05:11:29;;;;;;;;;;;;;;;1.83;94.80;99629.59;4913411;29;19923;-79
2022/02/20 05:13:55;;;;;;;;;;;;;;;2.19;97.11;99628.34;4915118;29;20494;-79
2022/02/20 05:16:24;;;;;;;;;;;;;;;2.52;99.58;99634.91;4914425;29;19947;-79
2022/02/20 05:18:50;;;;;;;;;;;;;;;2.57;100.00;99627.00;4915580;29;20371;-79
2022/02/20 05:21:15;;;;;;;;;;;;;;;2.76;100.00;99639.84;4914765;29;19979;-80
2022/02/20 05:23:40;;;;;;;;;;;;;;;2.84;100.00;99632.75;4898048;29;19999;-79
2022/02/20 05:26:05;;;;;;;;;;;;;;;2.93;100.00;99637.84;4891914;29;19920;-81
2022/02/20 05:28:31;;;;;;;;;;;;;;;3.02;100.00;99642.13;4892675;29;20375;-82
2022/02/20 05:30:56;;;;;;;;;;;;;;;3.46;100.00;99643.16;4914232;29;19975;-79
2022/02/20 05:33:21;;;;;;;;;;;;;;;3.41;100.00;99639.75;4913942;29;20382;-82
2022/02/20 05:35:47;;;;;;;;;;;;;;;3.46;100.00;99635.31;4893864;29;19919;-79
2022/02/20 05:38:13;;;;;;;;;;;;;;;3.45;100.00;99647.56;4897653;29;20198;-79
2022/02/20 05:40:38;;;;;;;;;;;;;;;3.46;100.00;99635.31;4896300;29;19958;-78
2022/02/20 05:43:04;;;;;;;;;;;;;;;3.43;100.00;99627.50;4897405;29;20379;-79
2022/02/20 05:45:29;;;;;;;;;;;;;;;3.43;100.00;99624.88;4909240;29;19919;-79
2022/02/20 05:47:55;;;;;;;;;;;;;;;3.36;100.00;99633.75;4892974;29;20022;-79
2022/02/20 05:50:20;;;;;;;;;;;;;;;3.47;100.00;99629.19;4913604;29;20003;-79
2022/02/20 05:52:45;;;;;;;;;;;;;;;3.41;100.00;99635.38;4897675;29;19922;-79
2022/02/20 05:55:10;;;;;;;;;;;;;;;3.47;100.00;99625.72;4914254;29;19961;-82
2022/02/20 05:57:46;;;;;;;;;;;;;;;3.43;100.00;99619.63;4912583;29;19919;-79
2022/02/20 06:00:12;;;;;;;;;;;;;;;3.40;100.00;99625.81;4912033;29;19922;-80
2022/02/20 06:02:37;;;;;;;;;;;;;;;3.44;100.00;99622.22;4895385;29;19923;-79
2022/02/20 06:05:02;;;;;;;;;;;;;;;3.47;100.00;99630.94;4914911;29;19915;-78
2022/02/20 06:07:28;;;;;;;;;;;;;;;3.51;100.00;99630.00;4898067;29;19975;-79
2022/02/20 06:09:53;;;;;;;;;;;;;;;3.43;100.00;99627.50;4909971;29;19927;-78
2022/02/20 13:56:57;;;;;;;;;;;;;;;7.34;100.00;99353.69;5175676;23;19957;-78
2022/02/20 13:59:22;;;;;;;;;;;;;;;7.42;100.00;99350.78;4923061;29;19969;-79
2022/02/20 14:02:06;;;;;;;;;;;;;;;7.45;100.00;99342.72;4922445;29;19965;-78
2022/02/20 14:04:41;;;;;;;;;;;;;;;7.46;100.00;99332.13;4928293;29;19927;-79
2022/02/20 14:07:14;;;;;;;;;;;;;;;7.55;100.00;99325.66;4936265;29;19919;-78
2022/02/20 14:09:44;;;;;;;;;;;;;;;7.58;100.00;99311.50;4930847;29;20358;-79
2022/02/20 14:12:17;;;;;;;;;;;;;;;7.62;100.00;99315.72;4935116;29;20275;-79
2022/02/20 14:14:58;;;;;;;;;;;;;;;7.65;100.00;99312.97;4922322;29;19926;-79
2022/02/20 14:17:43;;;;;;;;;;;;;;;7.65;100.00;99315.63;4922620;29;19927;-79
2022/02/20 14:20:08;;;;;;;;;;;;;;;7.70;100.00;99318.09;4921349;29;19929;-78
2022/02/20 14:22:37;;;;;;;;;;;;;;;7.72;100.00;99306.56;4940432;29;19931;-80
2022/02/20 14:25:05;;;;;;;;;;;;;;;7.75;100.00;99309.06;4939410;29;19926;-79
2022/02/20 14:27:39;;;;;;;;;;;;;;;6.30;100.00;99319.50;4921675;29;20026;-79
2022/02/20 14:30:05;;;;;;;;;;;;;;;4.82;100.00;99307.22;4939750;29;20271;-79
2022/02/20 14:32:31;;;;;;;;;;;;;;;4.24;100.00;99309.59;4938615;29;19946;-80
2022/02/20 14:34:56;;;;;;;;;;;;;;;3.79;100.00;99295.78;4920290;29;19947;-79
2022/02/20 14:37:38;;;;;;;;;;;;;;;3.56;98.34;99290.22;4921221;29;20013;-79
2022/02/20 14:40:05;;;;;;;;;;;;;;;3.56;97.41;99298.06;4937821;29;20384;-79
2022/02/20 14:42:30;;;;;;;;;;;;;;;3.36;96.26;99306.34;4921584;29;20178;-79
2022/02/20 14:44:55;;;;;;;;;;;;;;;3.27;96.13;99278.59;4921339;29;20369;-79
2022/02/20 14:47:20;;;;;;;;;;;;;;;3.00;95.32;99278.28;4921890;29;20370;-79
2022/02/20 14:49:46;;;;;;;;;;;;;;;2.84;94.95;99282.06;4939628;29;20343;-79
2022/02/20 14:52:13;;;;;;;;;;;;;;;2.80;94.84;99283.91;4921068;29;20022;-79
2022/02/20 14:54:38;;;;;;;;;;;;;;;2.65;94.40;99278.94;4940743;29;19919;-78
2022/02/20 14:57:03;;;;;;;;;;;;;;;2.71;93.86;99274.47;4937759;29;19986;-78
2022/02/20 14:59:32;;;;;;;;;;;;;;;2.57;93.37;99273.88;4939060;29;19918;-79
2022/02/20 15:01:57;;;;;;;;;;;;;;;2.41;92.65;99272.41;4936969;29;20360;-79
2022/02/20 15:04:23;;;;;;;;;;;;;;;2.22;92.23;99262.28;4938942;29;20009;-81
2022/02/20 15:06:48;;;;;;;;;;;;;;;2.35;91.50;99253.34;4937990;29;19918;-79
2022/02/20 15:09:13;;;;;;;;;;;;;;;2.15;90.63;99243.25;4939606;29;19922;-80
2022/02/20 15:11:42;;;;;;;;;;;;;;;1.96;89.95;99247.91;4936442;29;19923;-79
2022/02/20 15:14:08;;;;;;;;;;;;;;;1.73;89.50;99237.81;4937731;29;19923;-79
2022/02/20 15:16:33;;;;;;;;;;;;;;;1.86;89.13;99248.09;4937180;29;19933;-80
2022/02/20 15:18:58;;;;;;;;;;;;;;;1.66;88.90;99243.16;4935937;29;19923;-79
2022/02/20 15:21:24;;;;;;;;;;;;;;;1.78;89.03;99229.91;4936240;29;20001;-80
2022/02/20 15:23:49;;;;;;;;;;;;;;;2.16;90.79;99220.56;4938597;29;19919;-81
2022/02/20 15:26:14;;;;;;;;;;;;;;;2.50;93.96;99215.56;4939369;29;20471;-80
2022/02/20 15:28:39;;;;;;;;;;;;;;;2.63;96.46;99220.56;4937493;29;19926;-80
2022/02/20 15:31:06;;;;;;;;;;;;;;;2.81;98.27;99199.28;4924852;29;19918;-79
2022/02/20 15:33:31;;;;;;;;;;;;;;;3.01;99.67;99177.06;4936730;29;19925;-79
2022/02/20 15:35:56;;;;;;;;;;;;;;;3.04;100.00;99177.84;4935771;29;20404;-82
2022/02/20 15:38:21;;;;;;;;;;;;;;;3.11;100.00;99173.31;4940468;29;19927;-80
2022/02/20 15:40:47;;;;;;;;;;;;;;;3.20;100.00;99167.88;4933754;29;19927;-79
2022/02/20 15:43:12;;;;;;;;;;;;;;;3.30;100.00;99160.69;4933980;29;19923;-79
2022/02/20 15:45:38;;;;;;;;;;;;;;;3.24;100.00;99153.84;4936167;29;19933;-80
2022/02/20 15:48:04;;;;;;;;;;;;;;;3.32;100.00;99144.94;4936261;29;19919;-83
2022/02/20 15:50:29;;;;;;;;;;;;;;;3.38;100.00;99156.16;4936675;29;19930;-82
2022/02/20 15:52:55;;;;;;;;;;;;;;;3.44;100.00;99148.13;4938367;29;19918;-79
2022/02/20 15:55:20;;;;;;;;;;;;;;;3.53;100.00;99159.31;4937089;28;20001;-83
2022/02/20 15:57:45;;;;;;;;;;;;;;;3.47;100.00;99156.81;4938368;29;20586;-81
2022/02/20 16:00:11;;;;;;;;;;;;;;;3.48;100.00;99155.91;4936922;29;19978;-80
2022/02/20 16:02:36;;;;;;;;;;;;;;;3.51;100.00;99147.97;4938886;29;20259;-80
2022/02/20 16:05:04;;;;;;;;;;;;;;;3.49;100.00;99147.16;4933216;29;19922;-82
2022/02/20 16:07:30;;;;;;;;;;;;;;;3.58;100.00;99153.03;4934512;29;19973;-79
2022/02/20 16:09:55;;;;;;;;;;;;;;;3.54;100.00;99147.91;4933278;29;19973;-79
2022/02/20 16:12:20;;;;;;;;;;;;;;;3.56;100.00;99154.00;4937840;29;19919;-80
2022/02/20 16:14:45;;;;;;;;;;;;;;;3.61;100.00;99155.56;4937558;29;20411;-81
2022/02/20 16:17:11;;;;;;;;;;;;;;;3.61;100.00;99154.72;4936400;28;19927;-80
2022/02/20 16:19:36;;;;;;;;;;;;;;;3.66;100.00;99146.75;4936605;29;19934;-81
2022/02/20 16:22:02;;;;;;;;;;;;;;;3.64;100.00;99125.84;4935718;29;19966;-79
2022/02/20 16:24:27;;;;;;;;;;;;;;;3.68;99.33;99124.84;4936192;29;19927;-79
2022/02/20 16:26:53;;;;;;;;;;;;;;;3.73;98.49;99124.72;4935851;29;19958;-82
2022/02/20 16:29:18;;;;;;;;;;;;;;;3.68;97.50;99124.84;4941492;29;20374;-82
2022/02/20 16:31:45;;;;;;;;;;;;;;;3.72;96.46;99116.03;4937722;29;20533;-79
2022/02/20 16:34:11;;;;;;;;;;;;;;;3.73;95.47;99112.47;4920367;29;19923;-79
2022/02/20 16:36:36;;;;;;;;;;;;;;;3.79;94.83;99101.00;4941266;29;20049;-79
2022/02/20 16:39:01;;;;;;;;;;;;;;;3.80;94.05;99103.56;4939486;29;20024;-79
2022/02/20 16:41:27;;;;;;;;;;;;;;;3.84;93.30;99112.19;4939895;29;20322;-82
2022/02/20 16:43:54;;;;;;;;;;;;;;;3.88;92.87;99105.13;4925408;29;20218;-79
2022/02/20 16:46:24;;;;;;;;;;;;;;;3.82;91.99;99107.00;4942043;28;19954;-80
2022/02/20 16:48:50;;;;;;;;;;;;;;;3.88;91.47;99097.25;4937780;29;19937;-80
2022/02/20 16:51:15;;;;;;;;;;;;;;;3.87;91.16;99095.56;4939235;29;19922;-81
2022/02/20 16:53:41;;;;;;;;;;;;;;;3.84;90.75;99093.00;4940096;28;19929;-81
2022/02/20 16:56:06;;;;;;;;;;;;;;;3.84;90.44;99099.09;4936930;28;20010;-80
2022/02/20 16:58:32;;;;;;;;;;;;;;;3.86;90.24;99092.09;4939256;28;19926;-80
2022/02/20 17:00:57;;;;;;;;;;;;;;;3.93;90.11;99092.78;4940543;29;19923;-81
2022/02/20 17:03:23;;;;;;;;;;;;;;;3.89;89.70;99086.72;4941189;29;20025;-82
2022/02/20 17:05:49;;;;;;;;;;;;;;;3.85;89.42;99082.50;4947365;28;19923;-81
2022/02/20 17:08:14;;;;;;;;;;;;;;;3.86;89.13;99089.47;4940992;29;19933;-81
2022/02/20 17:10:39;;;;;;;;;;;;;;;3.83;88.66;99081.69;4939846;29;19926;-81
2022/02/20 17:13:04;;;;;;;;;;;;;;;3.87;88.59;99080.66;4921394;29;19926;-81
2022/02/20 17:15:30;;;;;;;;;;;;;;;3.89;88.56;99084.09;4939925;29;19927;-80
2022/02/20 17:17:56;;;;;;;;;;;;;;;3.88;88.38;99065.78;4922672;29;20339;-82
2022/02/20 17:20:21;;;;;;;;;;;;;;;3.90;88.57;99077.97;4939833;29;19926;-80
2022/02/20 17:22:47;;;;;;;;;;;;;;;3.91;88.26;99074.47;4940054;29;19974;-81
2022/02/20 17:25:13;;;;;;;;;;;;;;;3.95;88.17;99065.59;4940462;29;20029;-81
2022/02/20 17:27:38;;;;;;;;;;;;;;;3.97;88.13;99034.09;4941635;29;20695;-81
2022/02/20 17:30:06;;;;;;;;;;;;;;;4.00;88.13;99045.38;4939228;29;19922;-81
2022/02/20 17:32:32;;;;;;;;;;;;;;;4.02;87.94;99054.94;4942283;28;20417;-80
2022/02/20 17:34:58;;;;;;;;;;;;;;;4.03;87.93;99049.66;4942567;29;20009;-81
2022/02/20 17:37:27;;;;;;;;;;;;;;;4.04;87.73;99054.00;4939640;28;19994;-80
2022/02/20 17:39:52;;;;;;;;;;;;;;;3.98;87.43;99051.56;4933453;28;20354;-80
2022/02/20 17:42:18;;;;;;;;;;;;;;;4.04;87.29;99037.41;4935539;29;19926;-79
2022/02/20 17:44:43;;;;;;;;;;;;;;;4.10;87.21;99043.34;4938432;29;19962;-83
2022/02/20 17:47:08;;;;;;;;;;;;;;;4.03;86.85;99028.69;4936807;29;19921;-81
2022/02/20 17:49:34;;;;;;;;;;;;;;;4.07;86.76;99040.81;4938646;29;20469;-80
2022/02/20 17:52:00;;;;;;;;;;;;;;;4.05;86.64;99024.25;4939066;29;19941;-81
2022/02/20 17:54:26;;;;;;;;;;;;;;;4.06;86.44;99025.97;4941131;29;20381;-79
2022/02/20 17:56:51;;;;;;;;;;;;;;;4.02;86.13;99021.75;4936949;29;19922;-79
2022/02/20 17:59:16;;;;;;;;;;;;;;;4.06;85.90;99017.25;4939214;29;20374;-81
2022/02/20 18:01:42;;;;;;;;;;;;;;;4.02;85.62;99024.38;4937731;29;20321;-80
2022/02/20 18:04:09;;;;;;;;;;;;;;;4.08;85.51;99026.78;4936587;29;20398;-81
2022/02/20 18:06:34;;;;;;;;;;;;;;;4.11;85.56;99017.97;4938027;29;19954;-79
2022/02/20 18:09:00;;;;;;;;;;;;;;;4.17;85.58;99013.41;4938226;29;19922;-82
2022/02/20 18:11:25;;;;;;;;;;;;;;;4.19;85.24;99019.47;4936944;29;20069;-83
2022/02/20 18:13:50;;;;;;;;;;;;;;;4.23;85.04;99011.50;4939912;29;20374;-80
2022/02/20 18:16:16;;;;;;;;;;;;;;;4.24;84.73;99014.09;4939870;29;19922;-82
2022/02/20 18:18:42;;;;;;;;;;;;;;;4.24;84.70;99013.25;4940125;29;20394;-82
2022/02/20 18:21:08;;;;;;;;;;;;;;;4.22;84.39;99005.41;4939535;29;19926;-79
2022/02/20 18:23:36;;;;;;;;;;;;;;;4.22;84.00;98997.56;4938001;29;19946;-83
2022/02/20 18:26:01;;;;;;;;;;;;;;;4.20;83.74;98999.38;4937054;29;19918;-80
2022/02/20 18:28:29;;;;;;;;;;;;;;;4.27;83.79;99000.88;4937088;29;19929;-81
2022/02/20 18:30:55;;;;;;;;;;;;;;;4.17;83.26;99000.31;4937161;28;19926;-81
2022/02/20 18:33:20;;;;;;;;;;;;;;;4.25;83.24;98978.25;4938302;29;19991;-83
2022/02/20 18:35:45;;;;;;;;;;;;;;;4.22;82.89;98978.34;4938660;29;19930;-82
2022/02/20 18:38:11;;;;;;;;;;;;;;;4.25;83.17;98962.53;4938350;28;19977;-82
2022/02/20 18:40:36;;;;;;;;;;;;;;;4.17;82.77;98974.09;4938631;29;19926;-82
2022/02/20 18:43:02;;;;;;;;;;;;;;;4.23;82.32;98964.31;4938373;28;20365;-82
2022/02/20 18:45:27;;;;;;;;;;;;;;;4.23;81.98;98964.31;4942312;29;19926;-81
2022/02/20 18:47:53;;;;;;;;;;;;;;;4.19;81.32;98956.53;4937989;29;19918;-81
2022/02/20 18:50:18;;;;;;;;;;;;;;;4.21;81.29;98950.41;4938529;29;19927;-80
2022/02/20 18:52:43;;;;;;;;;;;;;;;4.28;81.32;98944.06;4903402;29;19923;-80
2022/02/20 18:55:09;;;;;;;;;;;;;;;4.27;81.34;98924.84;4941938;29;19930;-83
2022/02/20 18:57:35;;;;;;;;;;;;;;;4.32;81.51;98928.19;4938800;29;20314;-85
2022/02/20 19:00:00;;;;;;;;;;;;;;;4.36;81.44;98929.81;4922395;29;19958;-83
2022/02/20 19:02:26;;;;;;;;;;;;;;;4.37;81.47;98930.66;4940097;29;19918;-84
2022/02/20 19:04:51;;;;;;;;;;;;;;;4.51;81.87;98925.81;4939548;29;19922;-81
2022/02/20 19:07:16;;;;;;;;;;;;;;;4.46;81.66;98929.53;4939558;29;20366;-81
2022/02/20 19:09:42;;;;;;;;;;;;;;;4.48;81.51;98927.69;4940122;29;19930;-82
2022/02/20 19:12:07;;;;;;;;;;;;;;;4.48;81.35;98927.69;4937252;29;19922;-81
2022/02/20 19:14:32;;;;;;;;;;;;;;;4.59;81.71;98938.72;4925559;29;19977;-81
2022/02/20 19:16:57;;;;;;;;;;;;;;;4.49;81.20;98940.78;4923700;29;20400;-82
2022/02/20 19:19:25;;;;;;;;;;;;;;;4.43;80.40;98943.56;4939355;29;19931;-80
2022/02/20 19:21:50;;;;;;;;;;;;;;;4.41;80.21;98948.03;4937739;29;19929;-80
2022/02/20 19:24:16;;;;;;;;;;;;;;;4.41;79.86;98952.44;4938882;29;19922;-79
2022/02/20 19:26:41;;;;;;;;;;;;;;;4.47;79.95;98928.63;4926627;29;19965;-84
2022/02/20 19:29:07;;;;;;;;;;;;;;;4.41;79.30;98916.53;4940285;29;19978;-80
2022/02/20 19:31:32;;;;;;;;;;;;;;;4.40;78.98;98906.94;4939261;29;19930;-79
2022/02/20 19:33:57;;;;;;;;;;;;;;;4.47;78.83;98900.63;4922112;29;19957;-79
2022/02/20 19:36:22;;;;;;;;;;;;;;;4.48;78.36;98885.72;4921674;29;19982;-79
2022/02/20 19:38:48;;;;;;;;;;;;;;;4.57;78.65;98877.56;4923207;29;19923;-82
2022/02/20 19:41:13;;;;;;;;;;;;;;;4.51;78.62;98875.97;4937763;29;19926;-79
2022/02/20 19:43:39;;;;;;;;;;;;;;;4.51;78.22;98875.13;4920397;29;20013;-79
2022/02/20 19:46:04;;;;;;;;;;;;;;;4.65;78.49;98864.19;4940726;29;19930;-81
2022/02/20 19:48:30;;;;;;;;;;;;;;;4.73;78.74;98855.13;4939177;29;19954;-82
2022/02/20 19:50:55;;;;;;;;;;;;;;;4.72;78.85;98847.31;4937708;29;19926;-81
2022/02/20 19:53:20;;;;;;;;;;;;;;;4.74;78.78;98850.78;4937446;28;19982;-83
2022/02/20 19:55:45;;;;;;;;;;;;;;;4.76;78.65;98840.22;4940734;29;19926;-84
2022/02/20 19:58:11;;;;;;;;;;;;;;;4.86;78.82;98838.97;4940060;29;19922;-82
2022/02/20 20:00:36;;;;;;;;;;;;;;;4.88;78.77;98843.28;4921496;29;19922;-82
2022/02/20 20:03:02;;;;;;;;;;;;;;;4.83;78.48;98836.47;4938999;28;19930;-82
2022/02/20 20:05:27;;;;;;;;;;;;;;;4.82;78.24;98822.47;4925287;29;19922;-84
2022/02/20 20:07:52;;;;;;;;;;;;;;;4.81;77.97;98818.13;4943526;29;20001;-83
2022/02/20 20:10:19;;;;;;;;;;;;;;;4.90;78.12;98820.44;4925518;29;19934;-82
2022/02/20 20:12:45;;;;;;;;;;;;;;;4.85;77.70;98808.38;4943817;28;20410;-82
2022/02/20 20:15:11;;;;;;;;;;;;;;;4.90;77.52;98804.69;4940287;29;20057;-83
2022/02/20 20:17:38;;;;;;;;;;;;;;;4.97;77.88;98793.97;4939999;29;19922;-82
2022/02/20 20:20:05;;;;;;;;;;;;;;;4.97;77.84;98778.22;4923320;29;20438;-83
2022/02/20 20:22:30;;;;;;;;;;;;;;;4.94;77.41;98783.59;4940853;29;20009;-84
2022/02/20 20:24:56;;;;;;;;;;;;;;;4.96;77.28;98766.00;4941911;29;20061;-81
2022/02/20 20:27:21;;;;;;;;;;;;;;;5.05;77.35;98760.41;4924932;29;19923;-81
2022/02/20 20:29:46;;;;;;;;;;;;;;;5.02;77.47;98750.88;4918412;29;19931;-84
2022/02/20 20:32:12;;;;;;;;;;;;;;;5.07;77.52;98748.09;4923601;29;20433;-82
2022/02/20 20:34:37;;;;;;;;;;;;;;;5.05;77.19;98739.41;4925177;29;20542;-82
2022/02/20 20:37:03;;;;;;;;;;;;;;;5.06;76.96;98752.50;4925342;29;19937;-79
2022/02/20 20:39:29;;;;;;;;;;;;;;;5.14;77.27;98749.59;4925018;29;19926;-83
2022/02/20 20:41:54;;;;;;;;;;;;;;;5.15;77.13;98746.03;4923085;29;19923;-82
2022/02/20 20:44:19;;;;;;;;;;;;;;;5.13;77.01;98745.22;4938967;29;19923;-83
2022/02/20 20:46:45;;;;;;;;;;;;;;;5.15;76.83;98746.03;4922774;29;19983;-82
2022/02/20 20:49:10;;;;;;;;;;;;;;;5.20;77.07;98738.84;4942302;29;19933;-81
2022/02/20 20:51:35;;;;;;;;;;;;;;;5.16;76.78;98732.00;4918269;29;19923;-79
2022/02/20 20:54:00;;;;;;;;;;;;;;;5.21;76.80;98719.53;4925086;29;20418;-82
2022/02/20 20:56:26;;;;;;;;;;;;;;;5.24;76.81;98718.56;4924349;28;19929;-82
2022/02/20 20:58:52;;;;;;;;;;;;;;;5.32;76.84;98699.91;4924224;29;19922;-81
2022/02/20 21:01:17;;;;;;;;;;;;;;;5.35;76.91;98684.88;4926773;29;20941;-81
2022/02/20 21:03:42;;;;;;;;;;;;;;;5.34;76.63;98695.44;4920956;29;20038;-81
2022/02/20 21:06:08;;;;;;;;;;;;;;;5.33;76.49;98696.34;4927417;29;19926;-81
2022/02/20 21:08:36;;;;;;;;;;;;;;;5.35;76.39;98694.53;4923466;29;20001;-81
2022/02/20 21:11:02;;;;;;;;;;;;;;;5.27;75.96;98669.41;4940201;29;19927;-79
2022/02/20 21:13:27;;;;;;;;;;;;;;;5.38;75.90;98674.25;4924116;29;19922;-80
2022/02/20 21:15:52;;;;;;;;;;;;;;;5.41;76.03;98663.63;4924008;29;20401;-81
2022/02/20 21:18:17;;;;;;;;;;;;;;;5.44;76.00;98665.25;4916891;29;19923;-82
2022/02/20 21:20:43;;;;;;;;;;;;;;;5.46;75.84;98652.94;4943156;29;19958;-82
2022/02/20 21:23:08;;;;;;;;;;;;;;;5.48;75.84;98637.09;4947895;28;20297;-81
2022/02/20 21:25:34;;;;;;;;;;;;;;;5.53;75.54;98648.28;4929078;29;20578;-82
2022/02/20 21:27:59;;;;;;;;;;;;;;;5.55;75.64;98633.28;4925362;29;19926;-81
2022/02/20 21:30:24;;;;;;;;;;;;;;;5.57;75.62;98620.97;4918288;29;19922;-81
2022/02/20 21:32:50;;;;;;;;;;;;;;;5.66;75.81;98625.81;4924835;29;20354;-81
2022/02/20 21:35:16;;;;;;;;;;;;;;;5.67;75.57;98624.06;4946889;29;19922;-81
2022/02/20 21:37:41;;;;;;;;;;;;;;;5.73;76.08;98622.03;4924676;29;19926;-81
2022/02/20 21:40:07;;;;;;;;;;;;;;;5.80;75.99;98618.22;4945305;29;19993;-82
2022/02/20 21:42:33;;;;;;;;;;;;;;;5.91;76.38;98620.41;4926552;29;19927;-82
2022/02/20 21:44:58;;;;;;;;;;;;;;;5.91;76.48;98620.41;4946859;28;19969;-83
2022/02/20 21:47:24;;;;;;;;;;;;;;;5.96;76.42;98642.13;4923856;29;19929;-83
2022/02/20 21:49:49;;;;;;;;;;;;;;;5.99;76.57;98605.19;4947948;29;19925;-81
2022/02/20 21:52:14;;;;;;;;;;;;;;;6.05;76.80;98588.28;4925550;29;20586;-83
2022/02/20 21:54:40;;;;;;;;;;;;;;;6.03;76.59;98594.53;4921385;29;19926;-82
2022/02/20 21:57:06;;;;;;;;;;;;;;;5.99;76.26;98576.25;4926042;29;19969;-80
2022/02/20 21:59:32;;;;;;;;;;;;;;;6.06;76.19;98554.94;4925625;29;19986;-83
2022/02/20 22:01:58;;;;;;;;;;;;;;;6.14;76.18;98558.09;4918613;29;19973;-82
2022/02/20 22:04:23;;;;;;;;;;;;;;;6.20;76.54;98539.41;4939596;29;19931;-81
2022/02/20 22:06:48;;;;;;;;;;;;;;;6.32;76.66;98551.19;4924974;29;20314;-82
2022/02/20 22:09:14;;;;;;;;;;;;;;;6.25;76.32;98542.69;4923111;29;20021;-81
2022/02/20 22:11:39;;;;;;;;;;;;;;;6.28;76.03;98537.28;4941041;29;19985;-79
2022/02/20 22:14:04;;;;;;;;;;;;;;;6.32;76.17;98530.97;4943738;29;20336;-82
2022/02/20 22:16:30;;;;;;;;;;;;;;;6.37;76.18;98536.03;4943085;29;19922;-81
2022/02/20 22:18:55;;;;;;;;;;;;;;;6.22;75.87;98511.25;4925353;29;19922;-81
2022/02/20 22:21:20;;;;;;;;;;;;;;;5.07;75.44;98524.91;4923653;29;20462;-81
2022/02/20 22:23:46;;;;;;;;;;;;;;;4.47;76.14;98512.38;4920968;29;20366;-79
2022/02/20 22:26:11;;;;;;;;;;;;;;;4.16;76.12;98505.66;4940711;28;19923;-79
2022/02/20 22:28:36;;;;;;;;;;;;;;;3.95;76.92;98515.16;4917771;29;19926;-79
2022/02/20 22:31:02;;;;;;;;;;;;;;;3.81;77.46;98520.03;4923477;29;19972;-80
2022/02/20 22:33:27;;;;;;;;;;;;;;;3.68;78.00;98511.75;4924976;29;20533;-80
2022/02/20 22:35:53;;;;;;;;;;;;;;;3.68;78.76;98490.78;4922482;29;19930;-82
2022/02/20 22:38:19;;;;;;;;;;;;;;;3.50;78.78;98491.47;4923198;29;19922;-79
2022/02/20 22:40:44;;;;;;;;;;;;;;;3.37;79.37;98489.25;4922628;29;19933;-80
2022/02/20 22:43:10;;;;;;;;;;;;;;;3.40;79.33;98483.06;4924635;29;19923;-80
2022/02/20 22:45:35;;;;;;;;;;;;;;;3.36;80.08;98463.97;4922732;29;19982;-80
2022/02/20 22:48:00;;;;;;;;;;;;;;;3.35;80.48;98461.41;4923942;29;19923;-81
2022/02/20 22:50:26;;;;;;;;;;;;;;;3.26;80.92;98467.81;4922897;29;20375;-83
2022/02/20 22:52:51;;;;;;;;;;;;;;;3.20;80.67;98449.69;4924731;29;19984;-82
2022/02/20 22:55:16;;;;;;;;;;;;;;;3.16;80.63;98455.94;4920345;29;19927;-79
2022/02/20 22:57:42;;;;;;;;;;;;;;;3.00;80.50;98461.72;4923527;29;19930;-81
2022/02/20 23:00:17;;;;;;;;;;;;;;;2.90;80.24;98455.03;4916978;29;19934;-80
2022/02/20 23:02:43;;;;;;;;;;;;;;;2.93;80.64;98454.94;4923062;29;20386;-80
2022/02/20 23:05:09;;;;;;;;;;;;;;;3.07;81.88;98444.88;4939509;28;20606;-80
2022/02/20 23:07:34;;;;;;;;;;;;;;;2.96;81.59;98449.63;4939842;28;19922;-82
2022/02/20 23:09:59;;;;;;;;;;;;;;;2.82;81.61;98442.22;4934499;29;19926;-81
2022/02/20 23:12:25;;;;;;;;;;;;;;;2.90;81.91;98426.25;4916719;29;20620;-82
2022/02/20 23:14:50;;;;;;;;;;;;;;;2.83;81.55;98411.69;4923662;29;20413;-81
2022/02/20 23:17:16;;;;;;;;;;;;;;;2.83;81.72;98414.31;4916585;29;19926;-81
2022/02/20 23:19:42;;;;;;;;;;;;;;;2.84;82.09;98409.03;4923045;29;19922;-81
2022/02/20 23:22:07;;;;;;;;;;;;;;;2.72;81.69;98410.28;4937390;29;19922;-82
2022/02/20 23:24:32;;;;;;;;;;;;;;;2.58;81.55;98401.19;4922977;29;20021;-82
2022/02/20 23:26:58;;;;;;;;;;;;;;;2.63;81.85;98410.59;4921081;29;19926;-82
2022/02/20 23:29:23;;;;;;;;;;;;;;;2.78;82.38;98383.06;4923159;29;19974;-81
2022/02/20 23:31:48;;;;;;;;;;;;;;;2.61;82.05;98388.84;4922256;29;19922;-82
2022/02/20 23:34:14;;;;;;;;;;;;;;;2.48;81.90;98384.94;4922692;29;19927;-82
2022/02/20 23:36:39;;;;;;;;;;;;;;;2.44;81.75;98378.94;4922691;29;19976;-82
2022/02/20 23:39:05;;;;;;;;;;;;;;;2.85;84.99;98373.25;4922294;29;20014;-82
2022/02/20 23:41:30;;;;;;;;;;;;;;;3.41;90.96;98373.00;4918460;29;20874;-81
2022/02/20 23:43:55;;;;;;;;;;;;;;;3.84;95.51;98370.56;4942013;29;20394;-82
2022/02/20 23:46:21;;;;;;;;;;;;;;;4.08;98.61;98366.13;4924262;29;19922;-81
2022/02/20 23:48:46;;;;;;;;;;;;;;;4.25;100.00;98351.53;4936866;29;19972;-81
2022/02/20 23:51:12;;;;;;;;;;;;;;;4.49;100.00;98341.81;4923406;29;19970;-82
2022/02/20 23:53:37;;;;;;;;;;;;;;;4.65;100.00;98332.38;4923544;29;19982;-82
2022/02/20 23:56:02;;;;;;;;;;;;;;;4.76;100.00;98320.59;4919059;29;20047;-82
2022/02/20 23:58:28;;;;;;;;;;;;;;;4.98;100.00;98302.13;4923099;29;19929;-82
